createdAt,value
2019-04-04T00:02:10.980Z,93.92
2019-04-04T00:04:44.644Z,94.46
2019-04-04T00:07:18.383Z,94.89
2019-04-04T00:09:52.386Z,95.06
2019-04-04T00:12:26.127Z,94.76
2019-04-04T00:15:02.454Z,94.51
2019-04-04T00:17:35.240Z,94.44
2019-04-04T00:20:09.600Z,94.34
2019-04-04T00:22:43.303Z,94.64
2019-04-04T00:25:17.652Z,95.25
2019-04-04T00:27:51.824Z,95.81
2019-04-04T00:30:25.946Z,96.15
2019-04-04T00:32:59.678Z,96.36
2019-04-04T00:35:50.460Z,96.51
2019-04-04T00:38:25.027Z,96.62
2019-04-04T00:40:59.055Z,96.88
2019-04-04T00:43:33.507Z,96.81
2019-04-04T00:46:07.832Z,96.53
2019-04-04T00:48:41.977Z,95.90
2019-04-04T00:51:15.621Z,95.76
2019-04-04T00:53:49.971Z,95.19
2019-04-04T00:56:23.712Z,95.70
2019-04-04T00:58:57.363Z,96.06
2019-04-04T01:01:30.999Z,96.53
2019-04-04T01:04:05.032Z,96.53
2019-04-04T01:06:39.279Z,96.36
2019-04-04T01:09:13.700Z,96.37
2019-04-04T01:11:50.937Z,95.81
2019-04-04T01:14:23.627Z,94.91
2019-04-04T01:16:57.250Z,95.11
2019-04-04T01:19:31.015Z,95.61
2019-04-04T01:22:04.726Z,96.40
2019-04-04T01:24:39.116Z,97.11
2019-04-04T01:27:12.839Z,97.17
2019-04-04T01:29:46.538Z,97.31
2019-04-04T01:32:20.727Z,97.75
2019-04-04T01:34:54.460Z,97.89
2019-04-04T01:37:28.073Z,97.98
2019-04-04T01:40:02.240Z,97.73
2019-04-04T01:42:38.710Z,97.84
2019-04-04T01:45:13.218Z,98.05
2019-04-04T01:47:48.084Z,98.36
2019-04-04T01:50:22.776Z,98.42
2019-04-04T01:52:58.889Z,98.46
2019-04-04T01:55:34.966Z,97.94
2019-04-04T01:58:10.104Z,97.99
2019-04-04T02:00:46.029Z,97.78
2019-04-04T02:03:22.464Z,97.78
2019-04-04T02:05:56.156Z,97.95
2019-04-04T02:08:31.699Z,98.45
2019-04-04T02:11:06.208Z,98.28
2019-04-04T02:13:40.983Z,98.12
2019-04-04T02:16:16.900Z,98.04
2019-04-04T02:18:53.835Z,98.33
2019-04-04T02:21:28.769Z,98.82
2019-04-04T02:24:02.660Z,97.63
2019-04-04T02:26:36.737Z,97.27
2019-04-04T02:29:11.083Z,97.13
2019-04-04T02:31:53.083Z,96.99
2019-04-04T02:34:24.334Z,97.53
2019-04-04T02:36:58.125Z,98.42
2019-04-04T02:39:32.761Z,98.71
2019-04-04T02:42:07.416Z,98.61
2019-04-04T02:44:41.137Z,98.70
2019-04-04T02:47:17.569Z,98.86
2019-04-04T02:49:50.254Z,99.17
2019-04-04T02:52:23.853Z,99.14
2019-04-04T02:54:58.557Z,99.19
2019-04-04T02:57:32.410Z,99.38
2019-04-04T03:00:07.426Z,99.79
2019-04-04T03:02:41.023Z,100.00
2019-04-04T03:05:18.776Z,100.00
2019-04-04T03:07:50.666Z,100.00
2019-04-04T03:10:24.566Z,100.00
2019-04-04T03:12:59.487Z,100.00
2019-04-04T03:15:33.706Z,100.00
2019-04-04T03:18:07.680Z,99.82
2019-04-04T03:20:41.699Z,99.16
2019-04-04T03:23:15.840Z,98.97
2019-04-04T03:25:50.433Z,98.96
2019-04-04T03:28:24.464Z,99.17
2019-04-04T03:31:02.997Z,99.16
2019-04-04T03:33:33.482Z,99.25
2019-04-04T03:36:07.155Z,99.35
2019-04-04T03:38:40.808Z,99.13
2019-04-04T03:41:14.554Z,98.79
2019-04-04T03:43:49.093Z,99.00
2019-04-04T03:46:23.509Z,99.26
2019-04-04T03:48:57.696Z,99.04
2019-04-04T03:51:31.371Z,98.78
2019-04-04T03:54:08.497Z,98.78
2019-04-04T03:56:42.327Z,98.84
2019-04-04T03:59:16.051Z,98.74
2019-04-04T04:01:49.917Z,98.25
2019-04-04T04:04:26.833Z,97.69
2019-04-04T04:06:59.010Z,97.44
2019-04-04T04:09:32.621Z,97.96
2019-04-04T04:12:10.068Z,98.45
2019-04-04T04:14:41.907Z,98.59
2019-04-04T04:17:15.605Z,98.42
2019-04-04T04:19:49.186Z,98.65
2019-04-04T04:22:24.346Z,98.49
2019-04-04T04:25:02.198Z,98.58
2019-04-04T04:27:47.305Z,98.92
2019-04-04T04:30:18.259Z,99.17
2019-04-04T04:33:11.166Z,99.35
2019-04-04T04:35:46.008Z,99.69
2019-04-04T04:38:25.230Z,99.93
2019-04-04T04:40:56.194Z,99.97
2019-04-04T04:43:33.568Z,99.80
2019-04-04T04:46:05.339Z,99.52
2019-04-04T04:48:39.388Z,99.68
2019-04-04T04:51:13.454Z,99.82
2019-04-04T04:53:48.188Z,99.71
2019-04-04T04:56:22.952Z,99.66
2019-04-04T04:58:56.503Z,99.21
2019-04-04T05:01:30.124Z,98.40
2019-04-04T05:04:03.696Z,96.95
2019-04-04T05:06:37.638Z,96.83
2019-04-04T05:09:13.664Z,97.23
2019-04-04T05:11:49.863Z,97.41
2019-04-04T05:14:21.959Z,97.13
2019-04-04T05:16:55.587Z,97.31
2019-04-04T05:19:29.564Z,97.58
2019-04-04T05:22:03.240Z,97.57
2019-04-04T05:24:36.848Z,97.61
2019-04-04T05:27:10.569Z,97.55
2019-04-04T05:29:44.891Z,97.55
2019-04-04T05:32:21.709Z,96.90
2019-04-04T05:34:54.542Z,96.66
2019-04-04T05:37:28.273Z,96.73
2019-04-04T05:40:01.926Z,97.19
2019-04-04T05:42:35.714Z,97.50
2019-04-04T05:45:14.015Z,97.53
2019-04-04T05:47:46.258Z,97.81
2019-04-04T05:50:20.273Z,97.16
2019-04-04T05:52:54.397Z,96.26
2019-04-04T05:55:28.606Z,96.13
2019-04-04T05:58:02.453Z,95.74
2019-04-04T06:00:36.279Z,95.39
2019-04-04T06:03:09.948Z,93.67
2019-04-04T06:05:43.972Z,92.49
2019-04-04T06:08:17.697Z,92.72
2019-04-04T06:10:51.454Z,93.61
2019-04-04T06:13:27.006Z,92.67
2019-04-04T06:16:02.018Z,92.21
2019-04-04T06:18:36.536Z,92.29
2019-04-04T06:21:10.228Z,93.04
2019-04-04T06:23:43.842Z,93.31
2019-04-04T06:26:17.420Z,92.42
2019-04-04T06:28:51.575Z,92.66
2019-04-04T06:31:26.947Z,93.00
2019-04-04T06:34:00.511Z,92.88
2019-04-04T06:36:36.553Z,92.99
2019-04-04T15:52:45.953Z,83.46
2019-04-04T15:55:19.634Z,82.88
2019-04-04T15:57:53.262Z,82.78
2019-04-04T16:00:27.581Z,83.26
2019-04-04T16:03:01.484Z,82.60
2019-04-04T16:05:35.347Z,82.74
2019-04-04T16:08:08.960Z,82.89
2019-04-04T16:10:42.814Z,83.63
2019-04-04T16:13:16.822Z,83.94
2019-04-04T16:15:51.101Z,83.53
2019-04-04T16:18:26.795Z,83.72
2019-04-04T16:21:00.805Z,83.03
2019-04-04T16:23:34.992Z,83.08
2019-04-04T16:26:08.628Z,83.34
2019-04-04T16:28:42.537Z,84.11
2019-04-04T16:31:24.957Z,83.97
2019-04-04T16:34:15.448Z,84.99
2019-04-04T16:36:49.406Z,84.93
2019-04-04T16:39:23.319Z,83.40
2019-04-04T16:42:02.385Z,84.36
2019-04-04T16:44:32.623Z,83.99
2019-04-04T16:47:06.372Z,83.73
2019-04-04T16:49:40.328Z,83.83
2019-04-04T16:52:21.664Z,83.98
2019-04-04T16:54:58.002Z,83.25
2019-04-04T16:57:32.017Z,83.67
2019-04-04T17:00:06.680Z,84.23
2019-04-04T17:02:40.291Z,83.90
2019-04-04T17:05:14.511Z,83.97
2019-04-04T17:07:48.457Z,84.36
2019-04-04T17:10:22.104Z,83.99
2019-04-04T17:12:56.979Z,84.13
2019-04-04T17:15:30.681Z,84.94
2019-04-04T17:18:04.997Z,84.93
2019-04-04T17:20:40.783Z,84.76
2019-04-04T17:23:17.539Z,85.41
2019-04-04T17:25:51.537Z,85.27
2019-04-04T17:28:26.154Z,85.57
2019-04-04T17:31:00.093Z,85.93
2019-04-04T17:33:34.546Z,85.50
2019-04-04T17:36:09.674Z,85.45
2019-04-04T17:38:44.062Z,86.46
2019-04-04T17:41:18.095Z,86.98
2019-04-04T17:43:52.079Z,86.33
2019-04-04T17:46:29.783Z,86.57
2019-04-04T17:49:04.341Z,86.80
2019-04-04T17:51:38.888Z,87.74
2019-04-04T17:54:12.965Z,88.16
2019-04-04T17:56:56.168Z,87.84
2019-04-04T17:59:30.530Z,88.28
2019-04-04T18:02:05.113Z,87.73
2019-04-04T18:04:48.301Z,87.97
2019-04-04T18:07:15.345Z,87.87
2019-04-04T18:09:51.793Z,87.93
2019-04-04T18:12:25.776Z,87.75
2019-04-04T18:15:03.274Z,88.05
2019-04-04T18:17:38.228Z,88.83
2019-04-04T18:20:13.752Z,89.18
2019-04-04T18:22:48.082Z,89.70
2019-04-04T18:25:22.747Z,90.12
2019-04-04T18:27:58.235Z,90.20
2019-04-04T18:30:31.974Z,90.62
2019-04-04T18:33:07.114Z,90.86
2019-04-04T18:35:41.739Z,90.96
2019-04-04T18:38:18.352Z,90.72
2019-04-04T18:40:52.288Z,90.56
2019-04-04T18:43:26.370Z,90.62
2019-04-04T18:46:00.414Z,90.72
2019-04-04T18:48:35.214Z,91.11
2019-04-04T18:51:08.974Z,90.53
2019-04-04T18:53:45.856Z,90.65
2019-04-04T18:56:19.940Z,90.54
2019-04-04T18:58:55.750Z,90.59
2019-04-04T19:01:31.204Z,90.68
2019-04-04T19:04:05.674Z,91.11
2019-04-04T19:06:39.768Z,90.51
2019-04-04T19:09:15.578Z,90.47
2019-04-04T19:11:49.320Z,90.62
2019-04-04T19:14:23.393Z,90.18
2019-04-04T19:16:58.109Z,90.39
2019-04-04T19:19:36.734Z,90.97
2019-04-04T19:22:10.732Z,90.99
2019-04-04T19:24:44.530Z,90.62
2019-04-04T19:27:18.832Z,90.62
2019-04-04T19:29:53.163Z,90.31
2019-04-04T19:32:27.051Z,90.62
2019-04-04T19:35:03.602Z,90.84
2019-04-04T19:37:37.754Z,91.20
2019-04-04T19:40:15.899Z,91.39
2019-04-04T19:42:51.724Z,91.23
2019-04-04T19:45:27.258Z,92.07
2019-04-04T19:48:01.024Z,92.11
2019-04-04T19:50:38.950Z,91.48
2019-04-04T19:53:11.805Z,91.40
2019-04-04T19:55:46.198Z,91.32
2019-04-04T19:58:19.991Z,91.48
2019-04-04T20:00:56.365Z,90.90
2019-04-04T20:03:30.362Z,90.35
2019-04-04T20:06:03.964Z,90.32
2019-04-04T20:08:37.990Z,90.18
2019-04-04T20:11:11.746Z,90.37
2019-04-04T20:13:45.690Z,89.99
2019-04-04T20:16:19.313Z,89.34
2019-04-04T20:18:55.611Z,89.29
2019-04-04T20:21:31.416Z,89.92
2019-04-04T20:24:05.537Z,89.71
2019-04-04T20:26:40.005Z,89.62
2019-04-04T20:29:13.954Z,89.53
2019-04-04T20:31:47.542Z,89.27
2019-04-04T20:34:21.464Z,89.79
2019-04-04T20:36:55.485Z,90.13
2019-04-04T20:39:29.481Z,90.17
2019-04-04T20:42:03.423Z,89.65
2019-04-04T20:44:39.880Z,89.42
2019-04-04T20:47:14.090Z,90.12
2019-04-04T20:49:47.861Z,89.68
2019-04-04T20:52:22.301Z,90.41
2019-04-04T20:54:55.932Z,90.30
2019-04-04T20:57:29.822Z,90.34
2019-04-04T21:00:03.830Z,89.68
2019-04-04T21:02:37.742Z,90.14
2019-04-04T21:05:12.313Z,90.29
2019-04-04T21:07:45.890Z,90.80
2019-04-04T21:10:20.274Z,90.62
2019-04-04T21:12:53.822Z,90.52
2019-04-04T21:15:27.739Z,90.20
2019-04-04T21:18:01.293Z,90.53
2019-04-04T21:20:34.888Z,90.88
2019-04-04T21:23:08.438Z,90.71
2019-04-04T21:25:42.019Z,91.35
2019-04-04T21:28:15.609Z,91.75
2019-04-04T21:30:49.283Z,91.36
2019-04-04T21:33:22.853Z,91.36
